Latest Coastal Weather Observations for Swanbourne

IDW60701

Issued at 7:52 pm WST Sunday 30 August 2015 (issued every 10 minutes, with the page automatically refreshed every 10 minutes)

About coastal observations | Map of coastal stations | Coastal observations for WA | Marine services | Other Formats
Station Details ID: 009215 Name: SWANBOURNE Lat: -31.96 Lon: 115.76 Height: 40.96 m
Data from the previous 72 hours. | See also: Recent months at Swanbourne
Date/Time
WST
Temp

°C
Wind Pressure Rain
since 9am
mm
Weather Cloud Vis
km
Sea
Height
m
Swell
Dir
 
Speed
knots
Gust
knots
hPa Trend Height
m
Period
s
Dir
30/07:30pm 13.8 SW 6 10 - - 0.0 - - - - - - -
30/07:00pm 13.7 SSW 3 5 - - 0.0 - - - - - - -
30/06:30pm 13.5 SSW 3 5 - - 0.0 - - - - - - -
30/06:00pm 13.8 SW 3 7 - - 0.0 - - - - - - -
30/05:30pm 14.8 SSW 5 7 - - 0.0 - - - - - - -
30/05:00pm 16.2 SSW 6 8 - - 0.0 - - - - - - -
30/04:30pm 16.6 SSW 7 11 - - 0.0 - - - - - - -
30/04:00pm 17.6 SW 7 10 - - 0.0 - - - - - - -
30/03:30pm 17.0 SW 7 10 - - 0.0 - - - - - - -
30/03:00pm 16.8 SSW 7 11 - - 0.0 - - - - - - -
30/02:30pm 17.4 SSW 8 12 - - 0.0 - - - - - - -
30/02:00pm 17.9 SW 8 12 - - 0.0 - - - - - - -
30/01:30pm 17.6 SW 9 13 - - 0.0 - - - - - - -
30/01:00pm 17.6 SW 8 12 - - 0.0 - - - - - - -
30/12:30pm 18.2 SSW 10 15 - - 0.0 - - - - - - -
30/12:00pm 18.1 SSW 9 15 - - 0.0 - - - - - - -
30/11:30am 17.6 SSW 10 15 - - 0.0 - - - - - - -
30/11:00am 17.6 SSW 12 17 - - 0.0 - - - - - - -
30/10:30am 17.6 SSW 11 18 - - 0.0 - - - - - - -
30/10:00am 16.9 SW 11 16 - - 0.0 - - - - - - -
30/09:30am 16.6 SW 11 16 - - 0.0 - - - - - - -
30/09:00am 16.0 SW 12 18 - - 15.0 - - - - - - -
30/08:30am 15.8 SSW 13 18 - - 15.0 - - - - - - -
30/08:00am 15.6 SW 12 19 - - 15.0 - - - - - - -
30/07:30am 15.2 SW 14 22 - - 15.0 - - - - - - -
30/07:00am 14.5 SSW 8 14 - - 15.0 - - - - - - -
30/06:30am 15.2 SW 13 18 - - 15.0 - - - - - - -
30/06:00am 14.8 SW 13 20 - - 15.0 - - - - - - -
30/05:30am 15.3 SW 13 19 - - 15.0 - - - - - - -
30/05:00am 15.2 SW 12 19 - - 15.0 - - - - - - -
30/04:30am 15.2 SW 14 23 - - 15.0 - - - - - - -
30/04:00am 15.8 SW 15 21 - - 15.0 - - - - - - -
30/03:30am 15.9 WSW 15 21 - - 15.0 - - - - - - -
30/03:00am 15.5 SW 14 21 - - 15.0 - - - - - - -
30/02:30am 15.7 WSW 11 17 - - 15.0 - - - - - - -
30/02:00am 14.6 WSW 11 17 - - 15.0 - - - - - - -
30/01:30am 15.4 W 8 12 - - 15.0 - - - - - - -
30/01:00am 15.4 W 8 10 - - 14.8 - - - - - - -
30/12:30am 15.3 W 9 12 - - 14.8 - - - - - - -
30/12:00am 15.0 W 7 11 - - 14.8 - - - - - - -
 
Date/Time
WST
Temp

°C
Wind Pressure Rain
since 9am
mm
Weather Cloud Vis
km
Sea
Height
m
Swell
Dir
 
Speed
knots
Gust
knots
hPa Trend Height
m
Period
s
Dir
29/11:30pm 14.5 W 7 10 - - 14.8 - - - - - - -
29/11:00pm 14.7 WSW 9 15 - - 14.8 - - - - - - -
29/10:30pm 15.4 W 8 14 - - 14.6 - - - - - - -
29/10:00pm 15.4 W 8 12 - - 14.4 - - - - - - -
29/09:30pm 16.0 WSW 12 19 - - 12.4 - - - - - - -
29/09:00pm 16.1 NW 11 15 - - 12.0 Rain - - - - - -
29/08:30pm 17.6 NW 12 20 - - 7.4 - - - - - - -
29/08:00pm 17.9 NNW 9 13 - - 7.4 - - - - - - -
29/07:30pm 17.5 NW 10 14 - - 7.4 - - - - - - -
29/07:00pm 17.4 NW 8 11 - - 7.4 - - - - - - -
29/06:30pm 17.4 NW 8 11 - - 7.4 - - - - - - -
29/06:00pm 17.5 NW 10 13 - - 7.4 - - - - - - -
29/05:30pm 18.3 WNW 8 11 - - 7.4 - - - - - - -
29/05:00pm 19.1 WNW 10 14 - - 7.4 - - - - - - -
29/04:30pm 18.8 WNW 9 12 - - 7.4 - - - - - - -
29/04:00pm 20.0 WNW 10 13 - - 7.4 - - - - - - -
29/03:30pm 20.3 WNW 10 16 - - 7.4 - - - - - - -
29/03:00pm 20.1 WNW 12 15 - - 7.4 Recent precip. - - - - - -
29/02:30pm 18.8 WNW 11 15 - - 7.4 - - - - - - -
29/02:00pm 18.8 NW 13 17 - - 7.2 - - - - - - -
29/01:30pm 17.3 NNW 14 20 - - 7.2 - - - - - - -
29/01:00pm 17.5 NW 13 19 - - 3.8 - - - - - - -
29/12:30pm 19.5 NNW 16 23 - - 0.8 - - - - - - -
29/12:02pm 19.1 NNW 15 25 - - 0.8 - - - - - - -
29/12:00pm 18.6 NNW 15 24 - - 0.8 Recent precip. - - - - - -
29/11:30am 17.6 NNW 14 19 - - 0.8 - - - - - - -
29/11:00am 19.6 NNW 12 18 - - 0.0 - - - - - - -
29/10:30am 20.1 N 12 18 - - 0.0 - - - - - - -
29/10:00am 18.3 N 10 16 - - 0.0 - - - - - - -
29/09:30am 17.3 NNE 9 15 - - 0.0 - - - - - - -
29/09:00am 15.8 NNE 7 10 - - 2.0 - - - - - - -
29/08:30am 14.9 NE 7 14 - - 2.0 - - - - - - -
29/08:00am 14.2 NE 8 13 - - 2.0 - - - - - - -
29/07:30am 14.0 NNE 7 12 - - 2.0 - - - - - - -
29/07:00am 14.0 NNE 6 11 - - 2.0 - - - - - - -
29/06:30am 13.8 NNE 6 9 - - 2.0 - - - - - - -
29/06:00am 13.7 NE 5 8 - - 2.0 - - - - - - -
29/05:30am 13.9 NE 5 8 - - 2.0 - - - - - - -
29/05:00am 13.8 NE 5 8 - - 2.0 - - - - - - -
29/04:30am 13.9 NE 5 8 - - 2.0 - - - - - - -
29/04:00am 14.1 NE 5 9 - - 2.0 - - - - - - -
29/03:30am 14.2 NE 5 7 - - 2.0 - - - - - - -
29/03:00am 14.5 NNE 5 7 - - 2.0 Recent precip. - - - - - -
29/02:30am 14.3 NE 5 6 - - 1.8 - - - - - - -
29/02:00am 15.0 NNE 4 7 - - 1.8 - - - - - - -
29/01:30am 15.6 NNE 5 7 - - 1.8 - - - - - - -
29/01:00am 15.4 NNE 4 7 - - 1.8 - - - - - - -
29/12:30am 15.8 NE 4 7 - - 1.8 - - - - - - -
29/12:00am 16.1 N 6 8 - - 1.8 - - - - - - -
 
Date/Time
WST
Temp

°C
Wind Pressure Rain
since 9am
mm
Weather Cloud Vis
km
Sea
Height
m
Swell
Dir
 
Speed
knots
Gust
knots
hPa Trend Height
m
Period
s
Dir
28/11:30pm 16.0 NNE 4 7 - - 1.8 - - - - - - -
28/11:00pm 16.2 NNE 5 7 - - 1.8 - - - - - - -
28/10:30pm 16.2 N 4 5 - - 1.8 - - - - - - -
28/10:00pm 16.5 NNE 4 7 - - 1.8 - - - - - - -
28/09:30pm 16.5 NNE 5 8 - - 1.8 - - - - - - -
28/09:00pm 16.4 NNE 5 6 - - 1.8 - - - - - - -
28/08:30pm 16.4 N 4 5 - - 1.8 - - - - - - -
28/08:00pm 16.5 NNE 4 5 - - 1.8 - - - - - - -
28/07:30pm 16.5 NNE 4 5 - - 1.8 - - - - - - -
28/07:00pm 16.5 NE 3 4 - - 1.8 - - - - - - -
28/06:30pm 16.7 NNE 1 3 - - 1.8 - - - - - - -
28/06:00pm 17.4 CALM 0 0 - - 1.8 - - - - - - -
28/05:30pm 18.1 W 2 3 - - 1.8 - - - - - - -
28/05:00pm 18.5 WNW 2 3 - - 1.8 - - - - - - -
28/04:30pm 19.7 WNW 2 4 - - 1.8 - - - - - - -
28/04:00pm 20.4 W 2 4 - - 1.8 - - - - - - -
28/03:30pm 20.4 W 3 5 - - 1.8 - - - - - - -
28/03:00pm 20.6 WNW 4 6 - - 1.8 - - - - - - -
28/02:30pm 19.5 NW 6 9 - - 1.8 - - - - - - -
28/02:00pm 18.9 NW 8 11 - - 1.8 - - - - - - -
28/01:30pm 17.8 NW 12 20 - - 1.8 - - - - - - -
28/01:00pm 18.5 NNW 11 14 - - 1.6 - - - - - - -
28/12:30pm 18.1 NW 10 15 - - 1.6 - - - - - - -
28/12:00pm 19.5 NNW 10 14 - - 1.6 Recent precip. - - - - - -
28/11:30am 18.3 NNW 7 11 - - 1.6 - - - - - - -
28/11:00am 17.2 N 9 15 - - 1.2 - - - - - - -
28/10:30am 17.9 NNW 9 17 - - 1.2 - - - - - - -
28/10:00am 17.1 N 5 11 - - 1.0 - - - - - - -
28/09:30am 18.3 N 8 15 - - 0.0 - - - - - - -
28/09:00am 17.8 N 8 13 - - 0.0 - - - - - - -
28/08:30am 17.3 N 7 10 - - 0.0 - - - - - - -
28/08:00am 15.4 NNE 7 10 - - 0.0 - - - - - - -
28/07:30am 14.2 NNE 6 9 - - 0.0 - - - - - - -
28/07:00am 12.7 NE 5 7 - - 0.0 - - - - - - -
28/06:30am 12.6 NE 5 8 - - 0.0 - - - - - - -
28/06:00am 12.2 NE 5 7 - - 0.0 - - - - - - -
28/05:30am 12.2 NE 5 6 - - 0.0 - - - - - - -
28/05:00am 12.9 NNE 4 6 - - 0.0 - - - - - - -
28/04:30am 13.6 NNE 6 9 - - 0.0 - - - - - - -
28/04:00am 12.6 NE 4 7 - - 0.0 - - - - - - -
28/03:30am 13.0 NNE 4 6 - - 0.0 - - - - - - -
28/03:00am 13.8 NNE 6 8 - - 0.0 - - - - - - -
28/02:30am 13.5 N 5 7 - - 0.0 - - - - - - -
28/02:00am 13.8 NNE 5 7 - - 0.0 - - - - - - -
28/01:30am 14.0 NNE 4 7 - - 0.0 - - - - - - -
28/01:00am 14.8 NNE 4 7 - - 0.0 - - - - - - -
28/12:30am 15.4 NNE 5 8 - - 0.0 - - - - - - -
28/12:00am 15.5 N 5 7 - - 0.0 - - - - - - -
 
Date/Time
WST
Temp

°C
Wind Pressure Rain
since 9am
mm
Weather Cloud Vis
km
Sea
Height
m
Swell
Dir
 
Speed
knots
Gust
knots
hPa Trend Height
m
Period
s
Dir
27/11:30pm 15.3 NNE 5 6 - - 0.0 - - - - - - -
27/11:00pm 15.4 N 4 5 - - 0.0 - - - - - - -
27/10:30pm 15.2 NE 4 5 - - 0.0 - - - - - - -
27/10:00pm 16.8 NNW 7 9 - - 0.0 - - - - - - -
27/09:30pm 17.0 NNW 7 11 - - 0.0 - - - - - - -
27/09:00pm 17.1 N 7 11 - - 0.0 - - - - - - -
27/08:30pm 17.4 NNW 7 9 - - 0.0 - - - - - - -
27/08:00pm 17.6 N 6 7 - - 0.0 - - - - - - -

Other Formats:

Comma delimited format used in spreadsheet applications
http://www.bom.gov.au/fwo/IDW60701/IDW60701.94614.axf

JavaScript Object Notation format (JSON) in row-major order
http://www.bom.gov.au/fwo/IDW60701/IDW60701.94614.json